Location:  
MeteoStar


Sort by weather type Sort by elevation Sort by visibility Sort from west to east north Sort from north to south Alphabetically Sort from strongest wind speed Sort from lowest to highest pressure Sort from highest to lowest dew point temperature Sort coolest temperatures to warmest Sort warm temperatures to coolest
 Metric

Current Observations for United Kingdom sorted by pressure

Stornoway18:50ZPartly Cloudy41 3225980.1SSW 19 3229
South Uist Range19:00ZNot Avail.43 3220981SSW 27 Gusting to 36 3332
Benbecula18:50ZMostly Cloudy45 3220981.1SSW 23 Gusting to 33 3619
Scatsa / Shetland Island18:50ZClear34 3220982.2N 2 3472
Baltasound19:00ZNot Avail.36 3525982.5W 1 3649
Lerwick19:00ZCloudy40 3745982.9WNW 8 35269
Aultbea19:00ZClear41 3625982.9S 17 Gusting to 28 3336
Sumburgh Cape 18:50ZLight Showers43 3725983.1WSW 12 3716
Fair Isle19:00ZNot Avail.42 3515983.5SW 16 34187
Altnaharra19:00ZNot Avail.36 3130983.5SSW 3 36265
Loch Glascanoch19:00ZClear37 3030984.0ESE 3 37869
Tiree18:50ZClear41 3712984.1SSW 18 3239
Kirkwall Airport18:50ZClear39 3425984.2SSW 9 3368
Wick18:50ZClear37 3420984.2SSW 7 32127
Tain Range19:00ZNot Avail.35 3230984.5SSW 9 2813
Inverness / Dalcross18:50ZNot Avail.36 3020985.1S 3 3629
Kinloss18:50ZClear36 3040985.1SSW 8 3022
Lossiemouth18:50ZClear32 2825985.1SSW 6 2642
Aviemore19:00ZClear35 3217985.7SSW 5 31721
Eglinton / Londonderr18:50ZMostly Cloudy36 344986.1N 3 3629
Castlederg19:00ZNot Avail.35 338986.2E 3 35167
Belfast / Aldergrove Airport18:50ZClear34 3220986.3SSE 4 30265
Portglenone19:00ZNot Avail.36 3513986.4S 6 31209
Ballypatrick Forest19:00ZNot Avail.35 3320986.5SW 12 27511
Machrihanish19:00ZNot Avail.37 3320986.7ENE 2 3742
Tulloch Bridge19:00ZClear36 3130986.7SSW 6 31777
Aboyne19:00ZNot Avail.37 3030986.7W 6 32459
Glenanne19:00ZNot Avail.33 3212986.7S 4 29528
Lough Fea19:00ZMist33 335987.0SE 5 28738
Belfast / Harbour18:50ZClear36 324987.1S 6 3116
Aberdeen / Dyce18:50ZClear34 3020987.3S 8 27213
West Freugh19:00ZClear40 3825987.4ESE 4 3736
Prestwick Rnas19:00ZNot Avail.38 3340987.5SSE 7 3385
Inverbervie19:00ZNot Avail.35 3415987.7SW 14 26439
Dundrennan19:00ZClear38 3825987.7S 8 32374
Strathallan19:00ZNot Avail.36 3325988SSW 7 30114
Glasgow Airport18:50ZClear36 3220988.1SSW 4 3326
Dundee / Riverside18:50ZClear39 3620988.1SW 7 3413
Leuchars18:50ZNot Avail.37 3220988.1SSE 5 3339
Isle Of Man / Ronaldsway Airport19:00ZNot Avail.45 3630988.2SW 16 Gusting to 26 3855
Edinburgh Airport18:50ZNot Avail.36 3220988.2S 5 32134
Prestwick Airport18:50ZClear36 3220988.2S 6 3165
Drumalbin19:00ZNot Avail.35 3325988.4SSW 8 28803
Saint Bees Head19:00ZNot Avail.41 394988.5SSE 18 Gusting to 28 32406
Spadeadam18:50ZMostly Cloudy34 3230988.8S 11 261066
Valley18:50ZPartly Cloudy45 398989.1SSW 22 373
Carlisle19:00ZNot Avail.39 359989.2N 3991
Keswick19:00ZClear39 3630989.4E 5 35265
Charterhall19:00ZNot Avail.34 3325989.5SSW 7 28367
Eskdalemuir19:00ZLight Showers35 336989.5S 5 31793
Spadeadam19:00ZNot Avail.35 3325989.9S 11 27935
Walney Island19:00ZClear43 4015990S 14 3649
Shap19:00ZNot Avail.36 3512990.0S 18 Gusting to 26 26816
Boulmer18:50ZMostly Cloudy36 3220990.2S 6 3175
Newcastle 18:50ZMostly Cloudy37 3430990.3ESE 4 34265
Redesdale19:00ZNot Avail.32 3125990.5S 4 28692
Warcop Range19:00ZClear36 3430990.7SE 8 30744
Blackpool Airport18:50ZPartly Cloudy41 372.5991.1S 14 3332
Tees-Side18:50ZPartly Cloudy37 3430991.2S 14 28121
Leeming18:50ZPartly Cloudy39 3630991.2S 13 31131
Rhyl19:00ZNot Avail.40 3612991.2SSW 11 Gusting to 21 33252
Aberdaron19:00ZNot Avail.42 378991.2SW 26 Gusting to 34 32311
Loftus Samos19:00ZNot Avail.36 3320991.7S 12 28190
Crosby19:00ZClear41 3730991.7SSW 16 Gusting to 30 3326
Aberporth19:00ZClear40 3820992SSW 13 32436
Capel Curig19:00ZClear39 3713992WSW 14 Gusting to 37 31708
Linton-On-Ouse18:50ZPartly Cloudy39 3615992.1SSE 10 3252
Liverpool Airport 18:50ZPartly Cloudy41 397992.2S 10 3585
Topcliffe Royal Air Force Base 18:50ZPartly Cloudy37 3620992.2S 10 3091
Milford Haven19:00ZNot Avail.46 4018992.2SW 15 Gusting to 36 40144
Bingley19:00ZLight Showers38 356992.4WSW 16 Gusting to 27 29859
Leeds And Bradford18:50ZPartly Cloudy39 3415992.5S 5 35682
Trawscoed19:00ZNot Avail.41 3820992.7SSE 9 35206
Lake Vyrnwy19:00ZNot Avail.35 3445993.0S 8 281181
Hawarden18:50ZPartly Cloudy39 3630993.1SSE 8 3332
Pembrey Sands18:50ZMostly Cloudy48 414993.1SSW 30 399
Leconfield18:50ZClear41 3615993.1SSW 13 3419
Manchester Airport18:50ZLight Rain39 375993.2SW 7 34226
Shawbury18:50ZMostly Cloudy41 3735993.3SSW 12 34249
Bridlington Mrsc19:00ZNot Avail.41 3720993.4SW 10 3549
Sennybridge19:00ZNot Avail.40 3630993.7SSW 17 311007
Humberside18:50ZClear39 372.5994.2S 12 32101
Shobdon19:00ZNot Avail.40 3740994.7SW 6 Gusting to 27 36324
Waddington18:50ZClear37 3420995.2S 8 31223
Cranwell18:50ZClear36 3425995.2S 6 31219
Nottingham Weather Centre19:00ZNot Avail.38 3711995.2S 6 33383
Birmingham / Airport18:50ZLight Showers43 374995.3S 7 39324
East Midlands18:50ZMostly Cloudy37 3730995.3SSE 8 31308
Wittering18:50ZClear41 3614995.3S 11 34275
Chivenor19:00ZClear44 3930995.4SSW 12 Gusting to 27 3826
Scilly; Saint MaryS19:00ZNot Avail.48 4112995.5SW 27 Gusting to 38 40101
Donna Nook19:00ZNot Avail.40 3835995.7S 11 Gusting to 27 3326
Pershore19:00ZLight Showers45 3825995.9SSW 16 Gusting to 28 38104
Wainfleet19:00ZNot Avail.43 3920996.0S 16 359
Church Lawford19:00ZNot Avail.43 3620996.0SSW 7 39351
Camborne19:00ZNot Avail.45 4015996.0SSW 12 39285
Yeovilton18:50ZRain48 417996.1SSW 15 4275
Coningsby Royal Air Force Base18:50ZMostly Cloudy37 3425996.1SSW 2 3722
Culdrose18:50ZMostly Cloudy46 4312996.2SW 22 38255
Cardiff-Wales Airport18:50ZLight Rain43 397996.2WSW 14 36219
Brize Norton18:50ZPartly Cloudy43 3912996.2SSW 7 39288
Little Rissington19:00ZNot Avail.42 3820996.2SSW 19 Gusting to 26 33705
Cardinham19:00ZClear40 3825996.2S 8 35656
Bristol / Lulsgate 18:50ZLight Rain45 397996.4SSW 12 39620
Liscombe19:00ZNot Avail.39 3720996.4WSW 13 311141
Fairford Royal Air Force Base18:39ZPartly Cloudy43 3910996.7SSW 13 36285
Holbeach19:00ZNot Avail.41 3720996.7S 13 349
Lyneham19:00ZNot Avail.43 3930997.2SSW 9 38475
Exeter Airport18:50ZShowers41 394997.2SSW 17 Gusting to 27 3398
Benson18:50ZMostly Cloudy45 4120997.2S 11 39206
Marham18:50ZNot Avail.43 379997.2S 11 3775
Bedford19:00ZNot Avail.39 3625997.2S 7 34278
Boscombe Down18:50ZLight Rain45 4113997.3SSW 17 38406
Luton Airport 18:50ZClear43 397997.3S 8 38524
Weybourne19:00ZNot Avail.42 3625997.4S 12 3568
Dunkeswell Aerodrome19:00ZHeavy Rain40 392.75997.4SSW 15 Gusting to 30 32826
Plymouth19:00ZLight Rain43 4213997.5W 14 Gusting to 45 36164
Mildenhall Royal Air Force Base18:56ZClear44 397997.5S 11 3832
Larkhill19:00ZNot Avail.44 4013997.9SSW 8 39433
Lakenheath Royal Air Force Base18:56ZClear44 3520998S 7 4032
Bournemouth Airport18:50ZClear48 4312998.1SW 13 4336
Norwich Weather Centre18:50ZClear41 3625998.1SSW 7 3645
Farnborough18:50ZMostly Cloudy45 4113998.2S 10 40213
Middle Wallop18:50ZNot Avail.45 412.25998.2SSW 16 Gusting to 30 38298
Northolt18:50ZPartly Cloudy46 4120998.2SW 14 40124
High Wicombe Hqstc19:00ZClear43 3910998.2SW 8 38669
Stansted Airport18:50ZClear45 3925998.3SSW 13 39347
Odiham18:50ZPartly Cloudy45 4110998.3S 14 39403
Isle Of Portland19:00ZShowers46 434998.5SW 24 Gusting to 41 38173
Southampton / Weather Centre18:50ZShowers nearby50 416999.1S 16 Gusting to 26 4429
London City Airport18:50ZClear48 417999.1SSW 9 Gusting to 22 4416
London / Heathrow Airport18:50ZShowers46 432.5999.1SW 9 4178
Southend-On-Sea 18:50ZNot Avail.45 392.5999.1S 12 3949
London / Gatwick Airport18:50ZPartly Cloudy48 437999.2S 9 44203
Wattisham18:50ZClear43 3710999.2S 9 38285
Biggin Hill 18:50ZNot Avail.45 417999.3S 15 38600
Saint Catherines Point19:00ZNot Avail.50 434999.4SW 18 Gusting to 27 4452
Kenley19:00ZClear45 418999.5SSW 11 39557
Thorney Island19:00ZClear47 4116999.9SSW 18 Gusting to 36 4013
Shoeburyness19:00ZNot Avail.44 3991000SSW 13 386
Shoreham Airport18:50ZClear48 4371000.1SSW 17 426
Guernsey Airport18:50ZClear48 39201000.2S 20 41334
Manston19:00ZClear45 4171001SSW 13 Gusting to 25 39180
Herstmonceux19:00ZNot Avail.47 4171001SW 12 42170
Lydd Airport 18:50ZMostly Cloudy50 452.51001.1SW 19 449
Jersey Airport18:50ZClear48 4171001.2S 12 43275
Langdon Bay19:00ZNot Avail.48 4281001.2SW 14 Gusting to 28 42383
Saint Helena Island18:50ZNot Avail.66 63121015.5ESE 15 Gusting to 28 661427

Atlantic
Tropical Watch